Time;durP1;ratioP1;P1;durP2;ratioP2;P2;SDS_P1;SDS_P2;PMS_P1;PMS_P2;Temp;Humidity;BMP_temperature;BMP_pressure;BME280_temperature;BME280_humidity;BME280_pressure;Samples;Min_cycle;Max_cycle;Signal;HPM_P1;HPM_P2
2023/09/26 00:02:08;;;;;;;5.72;2.70;;;20.60;89.60;;;;;;7400319;19;19956;-72
2023/09/26 00:04:34;;;;;;;5.22;3.00;;;20.60;89.20;;;;;;7401379;19;19923;-72
2023/09/26 00:07:02;;;;;;;5.88;2.83;;;20.50;89.20;;;;;;7403042;19;20438;-72
2023/09/26 00:09:29;;;;;;;6.82;3.33;;;20.60;89.30;;;;;;7402380;19;19922;-72
2023/09/26 00:11:56;;;;;;;5.53;2.92;;;20.60;89.60;;;;;;7403507;19;19929;-72
2023/09/26 00:14:22;;;;;;;6.18;3.30;;;20.60;89.70;;;;;;7401683;19;19946;-71
2023/09/26 00:16:47;;;;;;;7.38;3.10;;;20.60;89.80;;;;;;7401740;19;19923;-72
2023/09/26 00:19:14;;;;;;;6.85;3.13;;;20.60;90.00;;;;;;7400910;19;20003;-72
2023/09/26 00:21:41;;;;;;;5.03;2.83;;;20.60;89.90;;;;;;7400612;19;19929;-72
2023/09/26 00:24:07;;;;;;;5.35;2.90;;;20.60;90.10;;;;;;7400058;19;19923;-72
2023/09/26 00:26:32;;;;;;;7.38;3.72;;;20.60;90.00;;;;;;7402646;19;20573;-72
2023/09/26 00:28:58;;;;;;;5.35;2.95;;;20.40;90.20;;;;;;7401824;19;19929;-73
2023/09/26 00:31:24;;;;;;;7.95;3.30;;;20.40;90.50;;;;;;7401314;19;19915;-72
2023/09/26 00:33:50;;;;;;;6.10;3.30;;;20.30;90.70;;;;;;7401988;19;20267;-72
2023/09/26 00:36:15;;;;;;;5.50;2.67;;;20.30;90.90;;;;;;7398787;19;19974;-72
2023/09/26 00:38:41;;;;;;;5.50;3.15;;;20.30;91.00;;;;;;7400896;19;19934;-72
2023/09/26 00:41:07;;;;;;;5.78;3.03;;;20.30;91.10;;;;;;7401463;19;19941;-73
2023/09/26 00:43:35;;;;;;;7.60;3.00;;;20.20;91.20;;;;;;7401460;19;19930;-72
2023/09/26 00:46:04;;;;;;;7.30;3.63;;;20.20;91.40;;;;;;7403529;19;20342;-72
2023/09/26 00:48:30;;;;;;;6.00;3.40;;;20.20;91.40;;;;;;7402885;19;19918;-72
2023/09/26 00:50:56;;;;;;;5.60;3.55;;;20.20;91.60;;;;;;7402207;19;20006;-72
2023/09/26 00:53:24;;;;;;;9.27;3.95;;;20.20;91.90;;;;;;7401499;19;19923;-73
2023/09/26 00:55:54;;;;;;;9.82;3.45;;;20.10;92.00;;;;;;7402464;19;19922;-73
2023/09/26 00:58:22;;;;;;;6.78;3.28;;;20.10;92.10;;;;;;7401942;19;19974;-72
2023/09/26 01:00:55;;;;;;;6.85;3.50;;;20.10;92.40;;;;;;7403551;19;19931;-73
2023/09/26 01:03:21;;;;;;;6.32;3.95;;;20.20;92.50;;;;;;7401110;19;19925;-73
2023/09/26 01:05:47;;;;;;;7.13;3.45;;;20.10;92.50;;;;;;7401314;19;19922;-73
2023/09/26 01:08:13;;;;;;;6.57;3.70;;;20.10;92.60;;;;;;7399484;19;19918;-71
2023/09/26 01:10:39;;;;;;;6.25;3.67;;;20.10;92.70;;;;;;7399879;19;19919;-72
2023/09/26 01:13:05;;;;;;;6.45;4.03;;;20.10;92.70;;;;;;7402670;19;19918;-72
2023/09/26 01:15:41;;;;;;;6.20;3.72;;;20.10;92.80;;;;;;7407172;19;19934;-72
2023/09/26 01:18:08;;;;;;;6.32;3.83;;;20.10;92.70;;;;;;7401256;19;19919;-72
2023/09/26 01:20:44;;;;;;;8.00;3.45;;;20.10;92.80;;;;;;7405586;19;20346;-72
2023/09/26 01:23:12;;;;;;;8.63;4.25;;;20.10;92.90;;;;;;7401424;19;19915;-71
2023/09/26 01:25:38;;;;;;;8.02;3.70;;;20.10;93.10;;;;;;7405515;19;19922;-73
2023/09/26 01:28:07;;;;;;;8.85;4.03;;;20.10;93.20;;;;;;7403643;19;19946;-72
2023/09/26 01:30:42;;;;;;;8.70;4.30;;;20.10;93.10;;;;;;7406169;19;19930;-72
2023/09/26 01:33:11;;;;;;;6.50;3.97;;;20.00;93.20;;;;;;7394417;19;20343;-71
2023/09/26 01:35:38;;;;;;;7.85;3.83;;;20.10;93.30;;;;;;7384062;19;20511;-72
2023/09/26 01:38:04;;;;;;;6.75;4.18;;;20.00;93.30;;;;;;7404114;19;19907;-71
2023/09/26 01:40:30;;;;;;;7.43;4.35;;;20.10;93.50;;;;;;7406197;19;19918;-71
2023/09/26 01:42:56;;;;;;;6.80;4.18;;;20.00;93.40;;;;;;7405446;19;19931;-71
2023/09/26 01:45:23;;;;;;;8.02;3.90;;;20.10;93.50;;;;;;7401331;19;20896;-72
2023/09/26 01:47:51;;;;;;;7.20;4.28;;;20.10;93.40;;;;;;7405891;19;19911;-72
2023/09/26 01:50:19;;;;;;;7.25;3.65;;;20.10;93.60;;;;;;7406717;19;20530;-72
2023/09/26 01:52:45;;;;;;;7.45;4.22;;;20.10;93.60;;;;;;7401367;19;19939;-72
2023/09/26 01:55:17;;;;;;;11.00;4.75;;;20.00;93.80;;;;;;7403319;19;19922;-71
2023/09/26 01:57:43;;;;;;;8.77;4.45;;;19.90;94.00;;;;;;7402722;19;19915;-71
2023/09/26 02:00:12;;;;;;;10.73;4.88;;;19.90;94.00;;;;;;7404206;19;20238;-71
2023/09/26 02:02:42;;;;;;;7.63;4.25;;;19.90;94.30;;;;;;7406661;19;20015;-72
2023/09/26 02:05:10;;;;;;;7.88;4.65;;;20.00;94.40;;;;;;7401593;19;19910;-71
2023/09/26 02:07:37;;;;;;;7.55;4.45;;;19.90;94.50;;;;;;7409222;19;19922;-71
2023/09/26 02:10:04;;;;;;;8.30;4.65;;;20.00;94.50;;;;;;7401295;19;19929;-71
2023/09/26 02:12:39;;;;;;;7.38;4.07;;;19.90;94.50;;;;;;7405298;19;19943;-72
2023/09/26 02:15:08;;;;;;;7.10;4.65;;;19.90;94.60;;;;;;7403314;19;19952;-72
2023/09/26 02:17:35;;;;;;;7.43;4.38;;;19.90;94.60;;;;;;7402914;19;19925;-71
2023/09/26 02:20:15;;;;;;;7.80;4.60;;;19.80;94.80;;;;;;7406220;19;19923;-72
2023/09/26 02:22:52;;;;;;;7.90;4.80;;;19.80;95.00;;;;;;7404855;19;19922;-72
2023/09/26 02:25:19;;;;;;;7.80;4.75;;;19.80;95.00;;;;;;7404482;19;19919;-72
2023/09/26 02:27:46;;;;;;;8.05;4.70;;;19.90;95.00;;;;;;7407324;19;19922;-72
2023/09/26 02:30:30;;;;;;;8.63;4.43;;;19.80;95.00;;;;;;7402968;19;19921;-73
2023/09/26 02:32:58;;;;;;;8.48;4.43;;;19.80;95.10;;;;;;7405588;19;19990;-72
2023/09/26 02:35:24;;;;;;;8.77;4.97;;;19.70;95.10;;;;;;7384013;19;19918;-72
2023/09/26 02:37:50;;;;;;;7.47;4.85;;;19.70;95.20;;;;;;7403554;19;19914;-72
2023/09/26 02:40:17;;;;;;;7.65;4.72;;;19.70;95.40;;;;;;7402158;19;19914;-72
2023/09/26 02:42:46;;;;;;;7.70;4.68;;;19.70;95.40;;;;;;7409208;19;19994;-72
2023/09/26 02:45:15;;;;;;;8.23;5.05;;;19.70;95.30;;;;;;7399128;19;19929;-72
2023/09/26 02:47:41;;;;;;;8.57;4.68;;;19.60;95.30;;;;;;7405127;19;19922;-72
2023/09/26 02:50:08;;;;;;;9.25;5.35;;;19.70;95.40;;;;;;7403444;19;19918;-72
2023/09/26 02:52:33;;;;;;;9.57;5.47;;;19.70;95.50;;;;;;7408793;19;19978;-72
2023/09/26 02:55:00;;;;;;;8.63;4.50;;;19.70;95.40;;;;;;7405082;19;19935;-71
2023/09/26 02:57:26;;;;;;;8.77;4.72;;;19.60;95.30;;;;;;7404083;19;19994;-71
2023/09/26 02:59:52;;;;;;;8.05;4.90;;;19.60;95.50;;;;;;7405660;19;20244;-73
2023/09/26 03:02:18;;;;;;;8.88;5.25;;;19.70;95.30;;;;;;7402503;19;19919;-71
2023/09/26 03:04:50;;;;;;;8.85;5.65;;;19.60;95.30;;;;;;7404044;19;19986;-72
2023/09/26 03:07:16;;;;;;;7.55;4.32;;;19.60;95.40;;;;;;7406140;19;20290;-72
2023/09/26 03:09:42;;;;;;;8.13;5.22;;;19.50;95.40;;;;;;7407932;19;19919;-72
2023/09/26 03:12:09;;;;;;;8.82;4.93;;;19.50;95.40;;;;;;7406130;19;19926;-72
2023/09/26 03:14:35;;;;;;;9.57;5.47;;;19.50;95.60;;;;;;7403340;19;19918;-72
2023/09/26 03:17:01;;;;;;;8.80;5.32;;;19.60;95.40;;;;;;7404528;19;19923;-72
2023/09/26 03:19:27;;;;;;;9.65;5.53;;;19.50;95.40;;;;;;7406129;19;19926;-72
2023/09/26 03:21:52;;;;;;;9.57;5.68;;;19.40;95.40;;;;;;7405824;19;19922;-71
2023/09/26 03:24:19;;;;;;;9.73;5.57;;;19.40;95.60;;;;;;7405180;19;19930;-72
2023/09/26 03:26:45;;;;;;;8.68;5.30;;;19.40;95.60;;;;;;7405970;19;20263;-72
2023/09/26 03:29:11;;;;;;;9.63;5.18;;;19.50;95.60;;;;;;7404085;19;20318;-72
2023/09/26 03:31:44;;;;;;;9.45;5.47;;;19.40;95.40;;;;;;7403010;19;20658;-73
2023/09/26 03:34:10;;;;;;;9.23;5.22;;;19.40;95.50;;;;;;7401795;19;19915;-72
2023/09/26 03:36:36;;;;;;;10.07;5.43;;;19.30;95.60;;;;;;7404610;19;19959;-72
2023/09/26 03:39:03;;;;;;;9.70;5.10;;;19.20;95.70;;;;;;7403154;19;20395;-73
2023/09/26 03:41:29;;;;;;;;;;;19.30;96.00;;;;;;7406801;19;19949;-72
2023/09/26 03:43:55;;;;;;;10.10;5.30;;;19.30;96.10;;;;;;7406689;19;19933;-72
2023/09/26 03:46:21;;;;;;;9.50;5.65;;;19.20;95.80;;;;;;7402858;19;20653;-73
2023/09/26 03:48:49;;;;;;;9.32;4.88;;;19.20;95.80;;;;;;7405405;19;19915;-73
2023/09/26 03:51:15;;;;;;;9.30;4.80;;;19.20;95.60;;;;;;7404301;19;20343;-71
2023/09/26 03:53:42;;;;;;;8.60;5.03;;;19.20;95.60;;;;;;7403729;19;19919;-72
2023/09/26 03:56:08;;;;;;;10.65;5.40;;;19.10;95.70;;;;;;7399782;19;19954;-71
2023/09/26 03:58:35;;;;;;;10.98;5.10;;;19.10;95.90;;;;;;7405395;19;20000;-72
2023/09/26 04:01:12;;;;;;;10.30;6.18;;;19.10;95.80;;;;;;7404662;19;19926;-72
2023/09/26 04:03:45;;;;;;;7.80;4.55;;;19.10;96.10;;;;;;7400110;19;19944;-72
2023/09/26 04:06:11;;;;;;;9.23;4.40;;;19.10;95.80;;;;;;7401165;19;20298;-71
2023/09/26 04:08:37;;;;;;;9.90;4.30;;;19.10;95.50;;;;;;7401216;19;19918;-72
2023/09/26 04:11:02;;;;;;;8.60;4.53;;;19.00;95.40;;;;;;7405085;19;20412;-72
2023/09/26 04:13:28;;;;;;;7.78;4.10;;;19.00;95.30;;;;;;7402917;19;19918;-72
2023/09/26 04:15:54;;;;;;;7.40;3.90;;;19.00;95.50;;;;;;7405423;19;19919;-72
2023/09/26 04:18:22;;;;;;;8.88;4.82;;;19.00;95.20;;;;;;7402422;19;20344;-72
2023/09/26 04:20:50;;;;;;;7.28;4.32;;;19.00;95.10;;;;;;7401529;19;19918;-72
2023/09/26 04:23:16;;;;;;;7.00;4.25;;;19.00;95.00;;;;;;7379484;19;19944;-72
2023/09/26 04:25:42;;;;;;;7.93;4.40;;;19.00;94.90;;;;;;7402663;19;19926;-72
2023/09/26 04:28:08;;;;;;;8.98;4.30;;;18.90;94.80;;;;;;7400903;19;19918;-72
2023/09/26 04:30:38;;;;;;;7.40;3.13;;;19.00;94.40;;;;;;7403123;19;19918;-72
2023/09/26 04:33:05;;;;;;;6.13;3.42;;;19.00;93.80;;;;;;7401483;19;20244;-73
2023/09/26 04:35:31;;;;;;;7.93;3.85;;;19.00;93.30;;;;;;7381165;19;19918;-73
2023/09/26 04:37:57;;;;;;;6.28;3.58;;;18.90;93.20;;;;;;7403462;19;20269;-72
2023/09/26 04:40:22;;;;;;;7.43;3.75;;;18.80;93.10;;;;;;7401933;19;20528;-72
2023/09/26 04:42:48;;;;;;;7.20;3.88;;;18.80;93.20;;;;;;7403104;19;19931;-72
2023/09/26 04:45:14;;;;;;;7.30;3.95;;;18.80;93.00;;;;;;7397986;19;19914;-72
2023/09/26 04:47:41;;;;;;;5.53;3.13;;;18.80;92.90;;;;;;7402869;19;20363;-72
2023/09/26 04:50:07;;;;;;;;;;;18.80;92.90;;;;;;7399710;19;19915;-73
2023/09/26 04:52:34;;;;;;;6.25;3.40;;;18.70;92.90;;;;;;7403674;19;20262;-72
2023/09/26 04:55:00;;;;;;;6.47;3.75;;;18.70;92.70;;;;;;7404788;19;20352;-71
2023/09/26 04:57:27;;;;;;;;;;;18.70;92.80;;;;;;7404778;19;19986;-72
2023/09/26 04:59:54;;;;;;;5.72;3.38;;;18.60;92.70;;;;;;7402246;19;19938;-74
2023/09/26 05:02:19;;;;;;;7.13;3.33;;;18.60;92.60;;;;;;7398912;19;20264;-71
2023/09/26 05:04:48;;;;;;;6.43;3.67;;;18.60;92.40;;;;;;7400242;19;19923;-72
2023/09/26 05:07:14;;;;;;;6.47;3.70;;;18.70;91.50;;;;;;7399791;19;20377;-73
2023/09/26 05:09:40;;;;;;;6.97;3.08;;;18.60;90.80;;;;;;7400156;19;20283;-71
2023/09/26 05:12:06;;;;;;;8.75;2.90;;;18.60;90.80;;;;;;7400124;19;19906;-73
2023/09/26 05:14:32;;;;;;;6.18;3.17;;;18.50;90.90;;;;;;7400138;19;19923;-71
2023/09/26 05:16:58;;;;;;;8.10;3.35;;;18.50;90.90;;;;;;7402822;19;19998;-73
2023/09/26 05:19:24;;;;;;;7.18;3.53;;;18.50;90.90;;;;;;7399793;19;19978;-71
2023/09/26 05:21:50;;;;;;;6.32;3.50;;;18.50;90.90;;;;;;7401541;19;19906;-73
2023/09/26 05:24:17;;;;;;;6.90;3.53;;;18.50;90.70;;;;;;7399814;19;19925;-73
2023/09/26 05:26:43;;;;;;;6.10;3.17;;;18.50;90.90;;;;;;7400524;19;19928;-72
2023/09/26 05:29:08;;;;;;;9.00;3.28;;;18.60;90.00;;;;;;7378568;19;19923;-73
2023/09/26 05:31:34;;;;;;;7.82;3.65;;;18.60;90.20;;;;;;7379365;19;20339;-72
2023/09/26 05:34:00;;;;;;;6.75;3.58;;;18.60;90.00;;;;;;7401633;19;19968;-71
2023/09/26 05:36:26;;;;;;;7.80;3.85;;;18.60;89.60;;;;;;7399924;19;20000;-72
2023/09/26 05:38:52;;;;;;;17.80;9.52;;;18.50;89.70;;;;;;7402875;19;19919;-72
2023/09/26 05:41:17;;;;;;;10.18;4.80;;;18.50;89.70;;;;;;7399085;19;19915;-72
2023/09/26 05:43:43;;;;;;;7.60;4.18;;;18.60;89.30;;;;;;7402843;19;20349;-72
2023/09/26 05:46:09;;;;;;;9.00;4.53;;;18.50;89.20;;;;;;7398192;19;19954;-72
2023/09/26 05:48:36;;;;;;;9.43;3.83;;;18.60;88.80;;;;;;7399418;19;19919;-73
2023/09/26 05:51:03;;;;;;;;;;;18.50;88.90;;;;;;7404232;19;19911;-72
2023/09/26 05:53:30;;;;;;;9.38;4.22;;;18.60;88.80;;;;;;7401229;19;19922;-71
2023/09/26 05:55:56;;;;;;;8.02;3.80;;;18.60;89.30;;;;;;7398313;19;19938;-72
2023/09/26 05:58:22;;;;;;;7.07;3.30;;;18.60;87.90;;;;;;7402189;19;19938;-71
2023/09/26 06:00:51;;;;;;;9.27;3.53;;;18.60;87.90;;;;;;7392951;19;20040;-72
2023/09/26 06:03:17;;;;;;;6.88;3.63;;;18.60;87.80;;;;;;7402028;19;19921;-72
2023/09/26 06:05:43;;;;;;;7.93;3.95;;;18.70;87.90;;;;;;7402009;19;20334;-72
2023/09/26 06:08:09;;;;;;;6.25;2.90;;;18.80;87.60;;;;;;7399412;19;19922;-72
2023/09/26 06:10:35;;;;;;;8.30;4.07;;;18.80;87.50;;;;;;7402856;19;19974;-73
2023/09/26 06:13:01;;;;;;;7.50;4.05;;;18.80;88.10;;;;;;7400881;19;19935;-71
2023/09/26 06:15:27;;;;;;;10.07;4.30;;;18.90;88.40;;;;;;7400135;19;19929;-71
2023/09/26 06:18:00;;;;;;;8.80;4.35;;;18.90;88.50;;;;;;7400413;19;19918;-72
2023/09/26 06:20:31;;;;;;;7.30;3.90;;;19.00;88.30;;;;;;7402265;19;19911;-72
2023/09/26 06:22:57;;;;;;;9.70;4.55;;;19.00;88.20;;;;;;7411931;19;19986;-72
2023/09/26 06:25:23;;;;;;;6.70;4.13;;;19.10;87.90;;;;;;7413090;19;20442;-71
2023/09/26 06:27:51;;;;;;;6.95;3.95;;;19.10;87.70;;;;;;7414708;19;19944;-72
2023/09/26 06:30:17;;;;;;;9.02;4.15;;;19.30;87.10;;;;;;7414040;19;20291;-72
2023/09/26 06:32:44;;;;;;;10.95;4.53;;;19.30;86.30;;;;;;7415580;19;19934;-72
2023/09/26 06:35:10;;;;;;;8.65;4.85;;;19.40;85.90;;;;;;7414072;19;19915;-72
2023/09/26 06:37:36;;;;;;;7.47;4.43;;;19.50;85.50;;;;;;7413883;19;19947;-73
2023/09/26 06:40:04;;;;;;;7.57;4.38;;;19.50;84.90;;;;;;7416714;19;19923;-72
2023/09/26 06:42:30;;;;;;;7.95;3.88;;;19.60;83.00;;;;;;7414397;19;19914;-72
2023/09/26 06:44:57;;;;;;;7.97;3.88;;;19.70;82.50;;;;;;7415743;19;19919;-72
2023/09/26 06:47:24;;;;;;;7.85;4.88;;;19.80;81.90;;;;;;7413919;19;19930;-73
2023/09/26 06:49:50;;;;;;;8.40;4.18;;;19.90;81.90;;;;;;7413371;19;20510;-73
2023/09/26 06:52:16;;;;;;;9.90;4.88;;;19.90;81.60;;;;;;7412487;19;19915;-72
2023/09/26 06:54:42;;;;;;;10.15;4.75;;;20.00;81.70;;;;;;7413507;19;19942;-72
2023/09/26 06:57:09;;;;;;;9.20;4.82;;;20.20;81.70;;;;;;7410736;19;19914;-72
2023/09/26 06:59:36;;;;;;;6.22;3.60;;;20.30;87.30;;;;;;7414443;19;19918;-73
2023/09/26 07:02:02;;;;;;;8.52;4.22;;;20.40;89.60;;;;;;7400593;19;20327;-72
2023/09/26 07:04:28;;;;;;;9.68;4.63;;;20.50;89.60;;;;;;7413774;19;19918;-72
2023/09/26 07:06:54;;;;;;;8.07;4.07;;;20.50;89.00;;;;;;7409849;19;19918;-72
2023/09/26 07:09:20;;;;;;;7.30;3.97;;;20.60;90.10;;;;;;7407193;19;19918;-72
2023/09/26 07:11:52;;;;;;;7.57;4.10;;;20.60;91.00;;;;;;7400954;19;19986;-73
2023/09/26 07:14:18;;;;;;;10.05;4.97;;;20.70;92.30;;;;;;7379308;19;19923;-72
2023/09/26 07:16:46;;;;;;;8.48;4.80;;;20.70;92.30;;;;;;7411232;19;19982;-73
2023/09/26 07:19:12;;;;;;;10.43;4.25;;;20.70;91.80;;;;;;7407290;19;19914;-73
2023/09/26 07:21:38;;;;;;;10.82;5.32;;;20.80;92.00;;;;;;7411491;19;19927;-72
2023/09/26 07:24:05;;;;;;;10.50;5.32;;;20.80;91.90;;;;;;7412112;19;20251;-72
2023/09/26 07:26:32;;;;;;;13.00;5.57;;;20.90;92.10;;;;;;7414183;19;19922;-71
2023/09/26 07:28:58;;;;;;;12.40;6.53;;;20.90;91.80;;;;;;7414191;19;19934;-72
2023/09/26 07:31:23;;;;;;;9.63;4.72;;;21.00;91.90;;;;;;7411354;19;20049;-73
2023/09/26 07:33:50;;;;;;;13.60;6.00;;;21.00;92.30;;;;;;7399066;19;19919;-72
2023/09/26 07:36:16;;;;;;;;;;;21.10;92.20;;;;;;7403940;19;19910;-73
2023/09/26 07:38:43;;;;;;;9.82;4.63;;;21.10;92.10;;;;;;7396518;19;20009;-71
2023/09/26 07:41:09;;;;;;;8.82;4.68;;;21.10;91.70;;;;;;7396663;19;19911;-72
2023/09/26 07:43:35;;;;;;;9.98;5.20;;;21.20;91.70;;;;;;7394261;19;19933;-73
2023/09/26 07:46:05;;;;;;;11.77;4.55;;;21.30;91.40;;;;;;7394391;19;20524;-72
2023/09/26 07:48:32;;;;;;;7.82;4.20;;;21.20;91.40;;;;;;7396267;19;19913;-73
2023/09/26 07:50:58;;;;;;;7.85;3.67;;;21.30;91.50;;;;;;7394348;19;19919;-72
2023/09/26 07:53:24;;;;;;;7.90;4.70;;;21.20;91.40;;;;;;7401876;19;20353;-72
2023/09/26 07:55:50;;;;;;;10.32;5.20;;;21.30;91.20;;;;;;7397613;19;19918;-72
2023/09/26 07:58:16;;;;;;;11.05;4.97;;;21.40;91.10;;;;;;7402654;19;20274;-72
2023/09/26 08:00:43;;;;;;;9.48;5.25;;;21.50;90.70;;;;;;7390213;19;19942;-72
2023/09/26 08:03:10;;;;;;;15.35;4.70;;;21.50;90.20;;;;;;7395181;19;19922;-72
2023/09/26 08:05:36;;;;;;;13.95;4.70;;;21.50;90.20;;;;;;7398138;19;19923;-72
2023/09/26 08:08:04;;;;;;;12.57;4.55;;;21.50;90.10;;;;;;7402715;19;20232;-72
2023/09/26 08:10:31;;;;;;;17.73;8.32;;;21.60;90.00;;;;;;7389673;19;20323;-74
2023/09/26 08:12:58;;;;;;;14.77;7.45;;;21.80;88.60;;;;;;7404983;19;19933;-72
2023/09/26 08:15:25;;;;;;;11.75;6.60;;;21.80;86.50;;;;;;7388978;19;19914;-72
2023/09/26 08:17:51;;;;;;;6.25;3.70;;;21.80;84.10;;;;;;7404219;19;20280;-75
2023/09/26 08:20:17;;;;;;;9.57;4.78;;;21.80;85.00;;;;;;7394745;19;19915;-72
2023/09/26 08:22:43;;;;;;;9.88;4.45;;;21.90;84.80;;;;;;7401077;19;19943;-72
2023/09/26 08:25:09;;;;;;;;;;;22.00;81.60;;;;;;7392969;19;19926;-72
2023/09/26 08:27:38;;;;;;;8.30;3.83;;;22.00;80.30;;;;;;7390692;19;20010;-72
2023/09/26 08:30:04;;;;;;;7.40;4.15;;;22.10;79.40;;;;;;7361649;19;19929;-74
2023/09/26 08:32:30;;;;;;;7.22;3.13;;;22.20;78.60;;;;;;7392703;19;19927;-73
2023/09/26 08:34:59;;;;;;;7.32;3.22;;;22.20;74.40;;;;;;7395190;19;19914;-72
2023/09/26 08:37:25;;;;;;;7.22;3.20;;;22.30;72.10;;;;;;7400388;19;19907;-73
2023/09/26 08:39:51;;;;;;;6.28;3.50;;;22.20;70.90;;;;;;7391849;19;19985;-72
2023/09/26 08:42:27;;;;;;;6.97;3.65;;;22.30;69.30;;;;;;7383337;19;19918;-72
2023/09/26 08:44:54;;;;;;;7.50;3.58;;;22.50;70.00;;;;;;7401478;19;19986;-73
2023/09/26 08:47:27;;;;;;;4.47;2.03;;;22.60;67.50;;;;;;7394068;19;20355;-73
2023/09/26 08:49:56;;;;;;;;;;;22.60;61.40;;;;;;7406094;19;19922;-72
2023/09/26 08:52:26;;;;;;;7.07;3.10;;;22.80;64.90;;;;;;7390429;19;19950;-73
2023/09/26 08:54:52;;;;;;;9.23;3.25;;;22.90;63.70;;;;;;7402972;19;19921;-72
2023/09/26 08:57:19;;;;;;;5.53;2.65;;;22.90;61.90;;;;;;7397722;19;20453;-72
2023/09/26 08:59:49;;;;;;;7.15;2.88;;;22.90;63.50;;;;;;7400006;19;19977;-73
2023/09/26 09:02:16;;;;;;;6.28;2.55;;;23.20;63.80;;;;;;7388131;19;19926;-73
2023/09/26 09:04:43;;;;;;;5.57;2.60;;;23.40;62.10;;;;;;7397355;19;20318;-73
2023/09/26 09:07:10;;;;;;;5.43;3.60;;;23.40;63.80;;;;;;7402242;19;20318;-72
2023/09/26 09:09:36;;;;;;;7.20;2.70;;;23.30;65.10;;;;;;7361127;19;19935;-72
2023/09/26 09:12:02;;;;;;;;;;;23.50;65.80;;;;;;7405837;19;19990;-73
2023/09/26 09:14:35;;;;;;;6.45;3.13;;;23.70;65.70;;;;;;7396631;19;20343;-72
2023/09/26 09:17:01;;;;;;;5.93;2.55;;;23.90;65.80;;;;;;7398202;19;19911;-72
2023/09/26 09:19:50;;;;;;;8.65;2.55;;;23.90;64.90;;;;;;7388221;19;20468;-73
2023/09/26 09:22:21;;;;;;;10.73;2.97;;;23.80;65.30;;;;;;7402164;19;19994;-73
2023/09/26 09:24:55;;;;;;;5.75;2.35;;;23.80;64.20;;;;;;7392028;19;19931;-72
2023/09/26 09:27:34;;;;;;;5.72;2.50;;;23.70;64.60;;;;;;7395036;19;19923;-73
2023/09/26 09:30:12;;;;;;;6.07;2.85;;;23.80;65.90;;;;;;7397547;19;19938;-72
2023/09/26 09:32:42;;;;;;;8.05;2.75;;;23.80;64.80;;;;;;7385348;19;19929;-72
2023/09/26 09:35:13;;;;;;;7.32;3.00;;;24.00;64.50;;;;;;7391071;19;19922;-74
2023/09/26 09:37:42;;;;;;;11.27;3.13;;;24.20;63.80;;;;;;7401506;19;19915;-73
2023/09/26 09:40:08;;;;;;;4.47;1.90;;;24.10;62.70;;;;;;7396724;19;19918;-73
2023/09/26 09:42:35;;;;;;;4.43;2.10;;;23.90;62.60;;;;;;7397927;19;19918;-72
2023/09/26 09:45:01;;;;;;;5.57;2.38;;;24.00;61.50;;;;;;7400002;19;19919;-72
2023/09/26 09:47:30;;;;;;;4.43;1.95;;;23.90;61.80;;;;;;7397508;19;19989;-73
2023/09/26 09:50:00;;;;;;;4.53;2.50;;;24.10;60.70;;;;;;7400547;19;19944;-72
2023/09/26 09:52:31;;;;;;;5.85;2.67;;;23.90;58.50;;;;;;7391405;19;19914;-72
2023/09/26 09:54:58;;;;;;;3.97;2.17;;;23.90;58.00;;;;;;7398578;19;19922;-72
2023/09/26 09:57:28;;;;;;;4.57;2.28;;;24.00;58.00;;;;;;7381926;19;19919;-72
2023/09/26 09:59:57;;;;;;;4.35;1.95;;;23.90;58.60;;;;;;7396717;19;20094;-73
2023/09/26 10:02:23;;;;;;;5.18;1.52;;;24.10;51.60;;;;;;7389400;19;20296;-72
2023/09/26 10:04:55;;;;;;;5.55;2.22;;;24.50;50.50;;;;;;7396474;19;20532;-73
2023/09/26 10:07:24;;;;;;;5.68;2.28;;;24.90;51.60;;;;;;7390976;19;19995;-72
2023/09/26 10:09:51;;;;;;;4.03;2.35;;;25.50;51.60;;;;;;7398386;19;20319;-73
2023/09/26 10:12:17;;;;;;;5.70;2.88;;;25.20;51.10;;;;;;7394145;19;19926;-73
2023/09/26 10:14:43;;;;;;;5.40;3.17;;;25.30;51.60;;;;;;7392087;19;19997;-72
2023/09/26 10:17:10;;;;;;;5.38;2.67;;;25.60;51.70;;;;;;7386923;19;19921;-72
2023/09/26 10:19:37;;;;;;;6.63;3.17;;;25.70;52.80;;;;;;7391581;19;19927;-74
2023/09/26 10:22:32;;;;;;;7.15;2.88;;;25.20;52.30;;;;;;7378062;19;19952;-73
2023/09/26 10:25:00;;;;;;;6.97;2.70;;;25.30;52.10;;;;;;7387083;19;20613;-72
2023/09/26 10:27:32;;;;;;;5.25;3.03;;;25.80;52.70;;;;;;7389000;19;20151;-73
2023/09/26 10:30:00;;;;;;;6.03;3.42;;;26.20;49.90;;;;;;7392587;19;19918;-73
2023/09/26 10:32:39;;;;;;;5.50;3.08;;;26.40;47.40;;;;;;7382329;19;19928;-74
2023/09/26 10:35:14;;;;;;;4.97;3.40;;;26.60;47.00;;;;;;7385632;19;20010;-73
2023/09/26 10:37:49;;;;;;;6.50;2.55;;;26.70;48.30;;;;;;7393637;19;19930;-72
2023/09/26 10:40:18;;;;;;;5.32;2.75;;;26.70;47.30;;;;;;7393576;19;19914;-73
2023/09/26 10:42:46;;;;;;;5.30;2.80;;;26.60;49.30;;;;;;7398106;19;19918;-73
2023/09/26 10:45:13;;;;;;;6.43;2.75;;;27.20;46.30;;;;;;7394888;19;19946;-73
2023/09/26 10:47:40;;;;;;;4.40;2.75;;;26.30;45.30;;;;;;7398454;19;19918;-73
2023/09/26 10:50:14;;;;;;;6.85;2.97;;;26.50;45.90;;;;;;7386334;19;19907;-73
2023/09/26 10:52:49;;;;;;;5.32;3.03;;;26.70;43.50;;;;;;7391045;19;19922;-72
2023/09/26 10:55:16;;;;;;;4.18;2.70;;;26.80;43.60;;;;;;7390990;19;20275;-72
2023/09/26 10:57:46;;;;;;;3.95;2.17;;;26.90;43.20;;;;;;7396098;19;19925;-73
2023/09/26 11:00:14;;;;;;;4.25;2.38;;;26.90;45.40;;;;;;7383409;19;19914;-73
2023/09/26 11:02:41;;;;;;;4.95;2.05;;;27.20;45.10;;;;;;7388809;19;19922;-72
2023/09/26 11:05:16;;;;;;;5.20;2.55;;;27.30;44.50;;;;;;7388725;19;20295;-73
2023/09/26 11:07:42;;;;;;;4.72;2.83;;;27.00;44.50;;;;;;7393214;19;19966;-72
2023/09/26 11:10:13;;;;;;;4.60;2.17;;;27.60;42.70;;;;;;7394590;19;19926;-73
2023/09/26 11:12:39;;;;;;;6.18;3.20;;;28.30;40.70;;;;;;7377758;19;19923;-72
2023/09/26 11:15:05;;;;;;;6.13;3.05;;;28.10;41.00;;;;;;7389404;19;19922;-72
2023/09/26 11:17:36;;;;;;;5.47;2.35;;;28.60;40.80;;;;;;7400305;19;20256;-74
2023/09/26 11:20:05;;;;;;;3.78;2.55;;;27.90;40.80;;;;;;7403122;19;19947;-73
2023/09/26 11:22:44;;;;;;;6.60;3.33;;;27.80;42.90;;;;;;7395014;19;19923;-72
2023/09/26 11:25:10;;;;;;;5.78;2.90;;;27.30;43.70;;;;;;7388549;19;19907;-73
2023/09/26 11:27:40;;;;;;;7.97;4.28;;;27.50;42.50;;;;;;7400961;19;19914;-72
2023/09/26 11:30:09;;;;;;;4.47;3.13;;;27.40;44.80;;;;;;7402139;19;19942;-73
2023/09/26 11:32:35;;;;;;;5.10;3.13;;;27.80;44.40;;;;;;7396146;19;19915;-72
2023/09/26 11:35:03;;;;;;;4.72;2.58;;;28.40;42.20;;;;;;7401925;19;19935;-73
2023/09/26 11:37:32;;;;;;;6.43;3.65;;;28.30;40.40;;;;;;7397279;19;19923;-73
2023/09/26 11:39:58;;;;;;;5.03;2.05;;;28.50;42.80;;;;;;7405698;19;20382;-74
2023/09/26 11:42:24;;;;;;;4.80;2.85;;;27.60;41.60;;;;;;7396263;19;19941;-72
2023/09/26 11:44:56;;;;;;;4.47;2.95;;;27.30;46.50;;;;;;7380624;19;19924;-73
2023/09/26 11:47:24;;;;;;;4.70;2.92;;;27.00;44.30;;;;;;7396791;19;20845;-72
2023/09/26 11:49:51;;;;;;;5.95;3.13;;;26.90;44.00;;;;;;7400868;19;19929;-73
2023/09/26 11:52:18;;;;;;;5.45;3.15;;;27.10;44.60;;;;;;7394965;19;19986;-73
2023/09/26 11:54:44;;;;;;;5.47;2.90;;;27.60;45.40;;;;;;7395903;19;19922;-71
2023/09/26 11:57:13;;;;;;;5.88;3.38;;;27.40;41.30;;;;;;7402397;19;20243;-73
2023/09/26 11:59:40;;;;;;;4.80;3.58;;;28.30;40.10;;;;;;7402128;19;19918;-73
2023/09/26 12:02:08;;;;;;;4.70;2.75;;;28.30;40.60;;;;;;7398140;19;20251;-73
2023/09/26 12:04:34;;;;;;;4.45;2.60;;;27.70;41.60;;;;;;7389270;19;20035;-73
2023/09/26 12:07:00;;;;;;;4.32;3.13;;;27.50;42.50;;;;;;7395555;19;19942;-74
2023/09/26 12:09:28;;;;;;;;;;;27.70;42.70;;;;;;7398062;19;19923;-73
2023/09/26 12:11:55;;;;;;;6.85;4.10;;;28.30;43.00;;;;;;7394264;19;19915;-73
2023/09/26 12:14:21;;;;;;;7.25;3.95;;;28.30;43.60;;;;;;7394106;19;19915;-72
2023/09/26 12:16:51;;;;;;;4.07;3.03;;;28.10;43.60;;;;;;7401884;19;19919;-73
2023/09/26 12:19:21;;;;;;;4.93;3.55;;;28.70;41.80;;;;;;7387004;19;19911;-73
2023/09/26 12:21:47;;;;;;;5.18;2.95;;;28.30;42.10;;;;;;7400084;19;19918;-73
2023/09/26 12:24:16;;;;;;;6.85;2.95;;;28.40;42.20;;;;;;7396902;19;19926;-73
2023/09/26 12:26:45;;;;;;;5.68;3.00;;;29.10;41.00;;;;;;7386029;19;19959;-74
2023/09/26 12:29:11;;;;;;;4.80;3.40;;;28.50;42.10;;;;;;7395181;19;19923;-72
2023/09/26 12:31:37;;;;;;;;;;;28.30;41.50;;;;;;7399626;19;20315;-73
2023/09/26 12:34:03;;;;;;;5.45;3.05;;;27.50;43.90;;;;;;7373818;19;19927;-72
2023/09/26 12:36:30;;;;;;;5.93;3.30;;;28.70;42.90;;;;;;7399188;19;19919;-70
2023/09/26 12:38:56;;;;;;;4.22;3.30;;;27.80;42.60;;;;;;7397044;19;19919;-72
2023/09/26 12:41:22;;;;;;;;;;;27.30;44.40;;;;;;7400981;19;19957;-74
2023/09/26 12:43:48;;;;;;;4.53;3.10;;;27.40;44.70;;;;;;7396039;19;19925;-73
2023/09/26 12:46:14;;;;;;;;;;;28.10;43.10;;;;;;7397929;19;19915;-73
2023/09/26 12:48:40;;;;;;;6.30;3.03;;;28.10;43.10;;;;;;7399679;19;19914;-72
2023/09/26 12:51:06;;;;;;;;;;;27.60;44.70;;;;;;7400318;19;19942;-73
2023/09/26 12:53:32;;;;;;;6.55;3.30;;;28.00;44.50;;;;;;7395274;19;19910;-73